Startpagina
METAR-TAF:

METAR-TAF

Vliegvelden :

Den Helder, Nederland

Vliegveld de Kooy

breedte: 52-55N, lengte: 004-47E, hoogte: 0 m

Actueel weer

Dit bericht is 17 minuten geleden gemaakt, om 02:55 UTC
Wind 5 kt uit het westen
Temperatuur 18°C
Vochtigheid 88%
Druk 1012 hPa
Zicht: 9000 m
Verspreide wolken op 4900 ft
Gebroken wolken op 5300 ft
nevel

METAR: EHKD 240255Z AUTO 28005KT 9000 BR SCT049 BKN053 18/16 Q1012 BLU

Tijdstip: 05:12 (03:12 UTC)

Verwachting

Dit bericht is 2 uur en het 34 minuten geleden gemaakt, om 00:38 UTC
Verwachting geldig van 24 om 01 UTC tot 24 om 13 UTC
Wind 10 kt uit het westen
Zicht: 6000 m
Verspreide wolken op 800 ft
Gebroken wolken op 1000 ft
Wijzigt naar
van 24 om 01 UTC tot 24 om 03 UTC
Weinig wolken op 1800 ft
Verspreide wolken op 5000 ft

TAF: EHKD 240038Z 2401/2413 28010KT 6000 SCT008 BKN010 BECMG 2401/2403 FEW018 SCT050

Waarnemingen en weersverwachtingen van meer dan 4000 vliegvelden (METAR en TAF).

De beschikbare stations zijn de gele en rode punten op de kaart.

Ga met uw muis naar het station om de naam te zien.

Klik dan om waarnemingen en weersverwachtingen te zien.

kaart wijzigen: klik op de groene knoppen met een zwart kruis om in te zoomen, op de groene knop met een streepje om uit te zoomen of op de groene pijlen voor aangrenzende kaarten.


METAR-TAF: